GAY weather

Gaya Airport
Bihar, India

Public forecast

Using degrees Celsius for public forecast. Weather courtesy of forecast.io.

METAR (pilot weather report)

Retrieved 2018/10/23 05:00 UTC (9 minutes ago):

VEGY 230500Z 32010KT 3500 HZ NSC 28/18 Q1015 NOSIG

TAF (pilot weather forecast)

Forecast is more than 12 hours old.

Retrieved 2018/05/18 00:00 UTC (5 months ago):

TAF VEGY 182300Z 1900/2006 07008KT 3000 HZ NSC BECMG 1904/1906 10010KT 4000 HZ SCT100 BECMG 1910/1912 05010KT 5000 HZ FEW020 BECMG 1916/1918 09008KT 4000 HZ BECMG 2000/2002 3000 HZ NSC BECMG 2004/2006 4000 HZ FEW020 SCT100